sensor_id;sensor_type;location;lat;lon;timestamp;pressure;altitude;pressure_sealevel;temperature;humidity
13029;BME280;6581;42.662;23.402;2023-02-02T00:01:40;95434.22;;;5.23;56.81
13029;BME280;6581;42.662;23.402;2023-02-02T00:04:14;95430.44;;;5.32;55.48
13029;BME280;6581;42.662;23.402;2023-02-02T00:06:41;95431.69;;;5.35;55.38
13029;BME280;6581;42.662;23.402;2023-02-02T00:09:32;95437.94;;;5.43;55.49
13029;BME280;6581;42.662;23.402;2023-02-02T00:12:00;95438.47;;;5.36;54.47
13029;BME280;6581;42.662;23.402;2023-02-02T00:14:27;95435.44;;;5.46;55.37
13029;BME280;6581;42.662;23.402;2023-02-02T00:16:56;95426.78;;;5.46;54.69
13029;BME280;6581;42.662;23.402;2023-02-02T00:19:26;95431.59;;;5.44;55.21
13029;BME280;6581;42.662;23.402;2023-02-02T00:21:55;95438.22;;;5.50;56.55
13029;BME280;6581;42.662;23.402;2023-02-02T00:24:22;95435.97;;;5.40;55.15
13029;BME280;6581;42.662;23.402;2023-02-02T00:26:51;95435.59;;;5.50;55.42
13029;BME280;6581;42.662;23.402;2023-02-02T00:29:20;95435.13;;;5.48;56.26
13029;BME280;6581;42.662;23.402;2023-02-02T00:31:48;95436.22;;;5.47;56.56
13029;BME280;6581;42.662;23.402;2023-02-02T00:34:16;95440.56;;;5.43;57.04
13029;BME280;6581;42.662;23.402;2023-02-02T00:36:47;95439.91;;;5.46;57.28
13029;BME280;6581;42.662;23.402;2023-02-02T00:39:17;95439.69;;;5.39;57.34
13029;BME280;6581;42.662;23.402;2023-02-02T00:41:44;95445.06;;;5.21;57.01
13029;BME280;6581;42.662;23.402;2023-02-02T00:44:11;95454.72;;;5.29;57.47
13029;BME280;6581;42.662;23.402;2023-02-02T00:47:04;95457.09;;;5.22;57.51
13029;BME280;6581;42.662;23.402;2023-02-02T00:49:55;95453.25;;;5.20;58.07
13029;BME280;6581;42.662;23.402;2023-02-02T00:52:23;95449.25;;;5.14;58.37
13029;BME280;6581;42.662;23.402;2023-02-02T00:54:51;95446.91;;;5.21;58.84
13029;BME280;6581;42.662;23.402;2023-02-02T00:57:18;95450.22;;;5.09;59.56
13029;BME280;6581;42.662;23.402;2023-02-02T00:59:46;95452.25;;;5.04;59.63
13029;BME280;6581;42.662;23.402;2023-02-02T01:02:13;95446.31;;;4.86;60.60
13029;BME280;6581;42.662;23.402;2023-02-02T01:04:40;95440.13;;;4.90;61.07
13029;BME280;6581;42.662;23.402;2023-02-02T01:07:07;95441.06;;;4.86;61.11
13029;BME280;6581;42.662;23.402;2023-02-02T01:09:35;95425.34;;;4.77;61.27
13029;BME280;6581;42.662;23.402;2023-02-02T01:12:03;95422.00;;;4.68;62.35
13029;BME280;6581;42.662;23.402;2023-02-02T01:14:30;95435.31;;;4.63;62.09
13029;BME280;6581;42.662;23.402;2023-02-02T01:16:57;95442.44;;;4.63;62.21
13029;BME280;6581;42.662;23.402;2023-02-02T01:19:25;95429.44;;;4.66;62.74
13029;BME280;6581;42.662;23.402;2023-02-02T01:21:52;95415.09;;;4.64;62.74
13029;BME280;6581;42.662;23.402;2023-02-02T01:24:20;95416.03;;;4.59;62.94
13029;BME280;6581;42.662;23.402;2023-02-02T01:26:49;95415.28;;;4.50;63.28
13029;BME280;6581;42.662;23.402;2023-02-02T01:29:16;95417.06;;;4.37;64.62
13029;BME280;6581;42.662;23.402;2023-02-02T01:32:07;95409.69;;;4.22;65.76
13029;BME280;6581;42.662;23.402;2023-02-02T01:34:35;95403.69;;;4.13;66.73
13029;BME280;6581;42.662;23.402;2023-02-02T01:37:06;95401.69;;;4.19;67.66
13029;BME280;6581;42.662;23.402;2023-02-02T01:39:33;95391.84;;;4.07;69.23
13029;BME280;6581;42.662;23.402;2023-02-02T01:42:02;95394.00;;;4.05;70.01
13029;BME280;6581;42.662;23.402;2023-02-02T01:45:12;95392.50;;;3.95;70.83
13029;BME280;6581;42.662;23.402;2023-02-02T01:48:05;95388.97;;;3.91;71.54
13029;BME280;6581;42.662;23.402;2023-02-02T01:50:33;95396.69;;;3.79;72.62
13029;BME280;6581;42.662;23.402;2023-02-02T01:53:01;95385.91;;;3.72;73.56
13029;BME280;6581;42.662;23.402;2023-02-02T01:55:31;95389.16;;;3.69;73.87
13029;BME280;6581;42.662;23.402;2023-02-02T01:58:04;95373.75;;;3.68;74.89
13029;BME280;6581;42.662;23.402;2023-02-02T02:00:35;95383.91;;;3.69;74.88
13029;BME280;6581;42.662;23.402;2023-02-02T02:03:05;95386.84;;;3.59;75.66
13029;BME280;6581;42.662;23.402;2023-02-02T02:05:40;95379.16;;;3.54;76.43
13029;BME280;6581;42.662;23.402;2023-02-02T02:08:12;95362.38;;;3.55;76.21
13029;BME280;6581;42.662;23.402;2023-02-02T02:10:41;95369.00;;;3.52;76.04
13029;BME280;6581;42.662;23.402;2023-02-02T02:13:09;95374.41;;;3.47;75.44
13029;BME280;6581;42.662;23.402;2023-02-02T02:15:45;95380.09;;;3.49;75.18
13029;BME280;6581;42.662;23.402;2023-02-02T02:18:54;95378.06;;;3.55;75.55
13029;BME280;6581;42.662;23.402;2023-02-02T02:21:35;95385.63;;;3.56;75.71
13029;BME280;6581;42.662;23.402;2023-02-02T02:28:23;95388.41;;;3.60;73.98
13029;BME280;6581;42.662;23.402;2023-02-02T02:31:06;95387.47;;;3.65;72.81
13029;BME280;6581;42.662;23.402;2023-02-02T02:33:45;95384.38;;;3.63;73.20
13029;BME280;6581;42.662;23.402;2023-02-02T02:36:18;95380.06;;;3.67;72.26
13029;BME280;6581;42.662;23.402;2023-02-02T02:38:50;95377.75;;;3.65;71.91
13029;BME280;6581;42.662;23.402;2023-02-02T02:41:21;95380.22;;;3.70;72.49
13029;BME280;6581;42.662;23.402;2023-02-02T02:43:54;95378.81;;;3.73;71.96
13029;BME280;6581;42.662;23.402;2023-02-02T02:46:23;95370.19;;;3.72;72.22
13029;BME280;6581;42.662;23.402;2023-02-02T02:48:52;95379.28;;;3.75;72.50
13029;BME280;6581;42.662;23.402;2023-02-02T02:51:41;95383.63;;;3.71;73.25
13029;BME280;6581;42.662;23.402;2023-02-02T02:54:14;95378.69;;;3.61;73.45
13029;BME280;6581;42.662;23.402;2023-02-02T02:57:04;95372.38;;;3.62;74.08
13029;BME280;6581;42.662;23.402;2023-02-02T02:59:43;95380.69;;;3.64;73.63
13029;BME280;6581;42.662;23.402;2023-02-02T03:02:27;95382.09;;;3.61;74.75
13029;BME280;6581;42.662;23.402;2023-02-02T03:05:06;95380.69;;;3.55;74.26
13029;BME280;6581;42.662;23.402;2023-02-02T03:08:02;95373.75;;;3.59;74.19
13029;BME280;6581;42.662;23.402;2023-02-02T03:10:31;95371.44;;;3.66;73.91
13029;BME280;6581;42.662;23.402;2023-02-02T03:13:00;95378.69;;;3.61;74.31
13029;BME280;6581;42.662;23.402;2023-02-02T03:15:32;95377.16;;;3.51;74.80
13029;BME280;6581;42.662;23.402;2023-02-02T03:17:59;95387.47;;;3.56;74.61
13029;BME280;6581;42.662;23.402;2023-02-02T03:20:28;95370.22;;;3.55;74.44
13029;BME280;6581;42.662;23.402;2023-02-02T03:22:55;95372.22;;;3.49;74.69
13029;BME280;6581;42.662;23.402;2023-02-02T03:25:22;95371.75;;;3.56;74.61
13029;BME280;6581;42.662;23.402;2023-02-02T03:27:49;95366.97;;;3.49;74.26
13029;BME280;6581;42.662;23.402;2023-02-02T03:30:16;95364.22;;;3.46;73.80
13029;BME280;6581;42.662;23.402;2023-02-02T03:32:44;95379.63;;;3.47;73.65
13029;BME280;6581;42.662;23.402;2023-02-02T03:35:12;95377.00;;;3.47;74.24
13029;BME280;6581;42.662;23.402;2023-02-02T03:37:40;95374.84;;;3.49;73.61
13029;BME280;6581;42.662;23.402;2023-02-02T03:40:09;95391.03;;;3.51;74.22
13029;BME280;6581;42.662;23.402;2023-02-02T03:42:36;95379.78;;;3.42;73.66
13029;BME280;6581;42.662;23.402;2023-02-02T03:45:04;95381.94;;;3.49;73.89
13029;BME280;6581;42.662;23.402;2023-02-02T03:47:31;95382.72;;;3.41;74.14
13029;BME280;6581;42.662;23.402;2023-02-02T03:49:58;95386.09;;;3.16;77.42
13029;BME280;6581;42.662;23.402;2023-02-02T03:52:52;95386.53;;;2.92;79.81
13029;BME280;6581;42.662;23.402;2023-02-02T03:55:20;95390.53;;;2.89;80.86
13029;BME280;6581;42.662;23.402;2023-02-02T03:57:47;95385.72;;;2.65;83.04
13029;BME280;6581;42.662;23.402;2023-02-02T04:00:14;95391.53;;;2.54;84.84
13029;BME280;6581;42.662;23.402;2023-02-02T04:02:41;95389.78;;;2.41;86.43
13029;BME280;6581;42.662;23.402;2023-02-02T04:05:08;95388.19;;;2.22;88.08
13029;BME280;6581;42.662;23.402;2023-02-02T04:08:02;95384.16;;;2.16;89.21
13029;BME280;6581;42.662;23.402;2023-02-02T04:10:29;95376.31;;;2.16;89.69
13029;BME280;6581;42.662;23.402;2023-02-02T04:12:56;95393.66;;;2.12;90.02
13029;BME280;6581;42.662;23.402;2023-02-02T04:15:23;95387.22;;;2.10;90.27
13029;BME280;6581;42.662;23.402;2023-02-02T04:17:50;95386.59;;;2.13;90.23
13029;BME280;6581;42.662;23.402;2023-02-02T04:20:17;95394.59;;;2.16;90.06
13029;BME280;6581;42.662;23.402;2023-02-02T04:22:44;95398.16;;;2.20;89.64
13029;BME280;6581;42.662;23.402;2023-02-02T04:25:12;95393.25;;;2.19;89.61
13029;BME280;6581;42.662;23.402;2023-02-02T04:27:39;95396.31;;;2.21;89.19
13029;BME280;6581;42.662;23.402;2023-02-02T04:30:07;95387.53;;;2.17;89.22
13029;BME280;6581;42.662;23.402;2023-02-02T04:32:34;95398.16;;;2.20;88.71
13029;BME280;6581;42.662;23.402;2023-02-02T04:35:01;95404.94;;;2.21;87.78
13029;BME280;6581;42.662;23.402;2023-02-02T04:37:29;95391.31;;;2.33;86.79
13029;BME280;6581;42.662;23.402;2023-02-02T04:39:56;95400.66;;;2.34;85.81
13029;BME280;6581;42.662;23.402;2023-02-02T04:42:25;95387.31;;;2.36;85.80
13029;BME280;6581;42.662;23.402;2023-02-02T04:44:52;95391.00;;;2.35;86.41
13029;BME280;6581;42.662;23.402;2023-02-02T04:47:19;95400.09;;;2.37;86.45
13029;BME280;6581;42.662;23.402;2023-02-02T04:49:46;95419.75;;;2.35;86.59
13029;BME280;6581;42.662;23.402;2023-02-02T04:52:13;95409.59;;;2.33;86.83
13029;BME280;6581;42.662;23.402;2023-02-02T04:54:40;95409.41;;;2.30;87.03
13029;BME280;6581;42.662;23.402;2023-02-02T04:57:07;95418.81;;;2.31;87.40
13029;BME280;6581;42.662;23.402;2023-02-02T04:59:36;95410.06;;;2.35;86.66
13029;BME280;6581;42.662;23.402;2023-02-02T05:02:03;95414.06;;;2.33;86.74
13029;BME280;6581;42.662;23.402;2023-02-02T05:04:30;95409.75;;;2.28;86.85
13029;BME280;6581;42.662;23.402;2023-02-02T05:06:57;95410.81;;;2.27;86.58
13029;BME280;6581;42.662;23.402;2023-02-02T05:09:24;95418.16;;;2.25;86.74
13029;BME280;6581;42.662;23.402;2023-02-02T05:11:51;95403.25;;;2.26;86.92
13029;BME280;6581;42.662;23.402;2023-02-02T05:14:19;95400.72;;;2.12;87.80
13029;BME280;6581;42.662;23.402;2023-02-02T05:16:47;95411.78;;;2.09;88.16
13029;BME280;6581;42.662;23.402;2023-02-02T05:19:15;95414.66;;;1.99;88.05
13029;BME280;6581;42.662;23.402;2023-02-02T05:21:42;95408.91;;;1.88;88.69
13029;BME280;6581;42.662;23.402;2023-02-02T05:24:10;95417.22;;;1.90;89.10
13029;BME280;6581;42.662;23.402;2023-02-02T05:26:37;95403.81;;;1.83;88.51
13029;BME280;6581;42.662;23.402;2023-02-02T05:29:04;95409.47;;;1.76;89.32
13029;BME280;6581;42.662;23.402;2023-02-02T05:31:34;95424.69;;;1.61;90.42
13029;BME280;6581;42.662;23.402;2023-02-02T05:34:02;95428.50;;;1.55;90.01
13029;BME280;6581;42.662;23.402;2023-02-02T05:36:31;95426.06;;;1.36;90.85
13029;BME280;6581;42.662;23.402;2023-02-02T05:38:58;95433.78;;;1.41;91.52
13029;BME280;6581;42.662;23.402;2023-02-02T05:41:25;95435.41;;;1.51;91.15
13029;BME280;6581;42.662;23.402;2023-02-02T05:43:52;95436.28;;;1.46;91.33
13029;BME280;6581;42.662;23.402;2023-02-02T05:46:19;95433.47;;;1.43;91.69
13029;BME280;6581;42.662;23.402;2023-02-02T05:48:47;95432.34;;;1.35;91.57
13029;BME280;6581;42.662;23.402;2023-02-02T05:51:17;95435.72;;;1.36;91.48
13029;BME280;6581;42.662;23.402;2023-02-02T05:53:45;95439.00;;;1.41;91.23
13029;BME280;6581;42.662;23.402;2023-02-02T05:56:13;95440.78;;;1.32;91.18
13029;BME280;6581;42.662;23.402;2023-02-02T05:58:40;95438.53;;;1.39;91.28
13029;BME280;6581;42.662;23.402;2023-02-02T06:01:07;95449.13;;;1.43;91.26
13029;BME280;6581;42.662;23.402;2023-02-02T06:03:35;95437.75;;;1.39;91.29
13029;BME280;6581;42.662;23.402;2023-02-02T06:06:02;95436.97;;;1.38;91.96
13029;BME280;6581;42.662;23.402;2023-02-02T06:08:31;95433.38;;;1.48;91.19
13029;BME280;6581;42.662;23.402;2023-02-02T06:10:58;95436.81;;;1.57;90.92
13029;BME280;6581;42.662;23.402;2023-02-02T06:13:25;95421.91;;;1.57;90.69
13029;BME280;6581;42.662;23.402;2023-02-02T06:15:52;95450.81;;;1.61;90.09
13029;BME280;6581;42.662;23.402;2023-02-02T06:18:19;95451.31;;;1.63;89.53
13029;BME280;6581;42.662;23.402;2023-02-02T06:20:46;95428.63;;;1.72;89.44
13029;BME280;6581;42.662;23.402;2023-02-02T06:23:13;95458.06;;;1.86;89.49
13029;BME280;6581;42.662;23.402;2023-02-02T06:25:41;95458.06;;;1.86;88.95
13029;BME280;6581;42.662;23.402;2023-02-02T06:28:08;95465.13;;;1.86;88.73
13029;BME280;6581;42.662;23.402;2023-02-02T06:30:35;95461.50;;;1.95;88.85
13029;BME280;6581;42.662;23.402;2023-02-02T06:33:02;95474.91;;;2.02;88.38
13029;BME280;6581;42.662;23.402;2023-02-02T06:35:29;95473.25;;;2.06;87.77
13029;BME280;6581;42.662;23.402;2023-02-02T06:37:56;95477.28;;;2.12;87.07
13029;BME280;6581;42.662;23.402;2023-02-02T06:40:24;95470.09;;;2.18;87.06
13029;BME280;6581;42.662;23.402;2023-02-02T06:42:56;95465.50;;;2.15;87.17
13029;BME280;6581;42.662;23.402;2023-02-02T06:45:23;95485.53;;;2.28;86.76
13029;BME280;6581;42.662;23.402;2023-02-02T06:47:50;95490.19;;;2.40;85.63
13029;BME280;6581;42.662;23.402;2023-02-02T06:50:18;95494.91;;;2.51;84.63
13029;BME280;6581;42.662;23.402;2023-02-02T06:52:46;95481.06;;;2.59;83.61
13029;BME280;6581;42.662;23.402;2023-02-02T06:55:14;95489.53;;;2.56;84.46
13029;BME280;6581;42.662;23.402;2023-02-02T06:57:41;95489.22;;;2.58;84.25
13029;BME280;6581;42.662;23.402;2023-02-02T07:00:11;95487.22;;;2.55;83.88
13029;BME280;6581;42.662;23.402;2023-02-02T07:02:38;95487.03;;;2.51;83.55
13029;BME280;6581;42.662;23.402;2023-02-02T07:05:05;95485.63;;;2.45;84.43
13029;BME280;6581;42.662;23.402;2023-02-02T07:07:33;95504.00;;;2.62;83.62
13029;BME280;6581;42.662;23.402;2023-02-02T07:10:00;95496.78;;;2.59;83.74
13029;BME280;6581;42.662;23.402;2023-02-02T07:12:28;95504.31;;;2.61;83.85
13029;BME280;6581;42.662;23.402;2023-02-02T07:14:55;95498.31;;;2.60;83.77
13029;BME280;6581;42.662;23.402;2023-02-02T07:17:25;95504.63;;;2.59;84.45
13029;BME280;6581;42.662;23.402;2023-02-02T07:19:52;95491.28;;;2.70;84.75
13029;BME280;6581;42.662;23.402;2023-02-02T07:22:19;95490.38;;;2.74;83.20
13029;BME280;6581;42.662;23.402;2023-02-02T07:24:46;95486.41;;;2.94;82.61
13029;BME280;6581;42.662;23.402;2023-02-02T07:27:13;95495.03;;;2.94;82.44
13029;BME280;6581;42.662;23.402;2023-02-02T07:29:40;95492.63;;;3.06;82.25
13029;BME280;6581;42.662;23.402;2023-02-02T07:32:07;95495.69;;;3.08;81.50
13029;BME280;6581;42.662;23.402;2023-02-02T07:34:37;95508.66;;;3.13;81.02
13029;BME280;6581;42.662;23.402;2023-02-02T07:37:04;95495.41;;;3.10;81.13
13029;BME280;6581;42.662;23.402;2023-02-02T07:39:31;95516.72;;;3.34;80.06
13029;BME280;6581;42.662;23.402;2023-02-02T07:41:59;95511.16;;;3.27;80.53
13029;BME280;6581;42.662;23.402;2023-02-02T07:44:34;95496.84;;;3.33;81.04
13029;BME280;6581;42.662;23.402;2023-02-02T07:47:01;95498.53;;;3.29;80.94
13029;BME280;6581;42.662;23.402;2023-02-02T07:49:28;95489.44;;;3.27;81.06
13029;BME280;6581;42.662;23.402;2023-02-02T07:51:56;95491.75;;;3.37;80.80
13029;BME280;6581;42.662;23.402;2023-02-02T07:54:23;95475.41;;;3.23;80.63
13029;BME280;6581;42.662;23.402;2023-02-02T07:56:50;95469.13;;;3.32;80.39
13029;BME280;6581;42.662;23.402;2023-02-02T07:59:17;95462.66;;;3.38;80.94
13029;BME280;6581;42.662;23.402;2023-02-02T08:01:45;95464.34;;;3.34;80.86
13029;BME280;6581;42.662;23.402;2023-02-02T08:04:12;95469.75;;;3.38;80.61
13029;BME280;6581;42.662;23.402;2023-02-02T08:06:40;95463.88;;;3.41;80.15
13029;BME280;6581;42.662;23.402;2023-02-02T08:09:09;95463.75;;;3.46;80.42
13029;BME280;6581;42.662;23.402;2023-02-02T08:11:36;95457.09;;;3.48;79.81
13029;BME280;6581;42.662;23.402;2023-02-02T08:14:29;95456.78;;;3.67;79.77
13029;BME280;6581;42.662;23.402;2023-02-02T08:16:57;95459.25;;;3.81;78.25
13029;BME280;6581;42.662;23.402;2023-02-02T08:19:24;95451.69;;;3.96;76.87
13029;BME280;6581;42.662;23.402;2023-02-02T08:21:51;95449.19;;;4.26;75.30
13029;BME280;6581;42.662;23.402;2023-02-02T08:24:19;95447.78;;;4.28;74.85
13029;BME280;6581;42.662;23.402;2023-02-02T08:26:47;95441.72;;;4.36;73.55
13029;BME280;6581;42.662;23.402;2023-02-02T08:29:14;95446.94;;;4.54;72.93
13029;BME280;6581;42.662;23.402;2023-02-02T08:31:43;95438.41;;;4.65;72.80
13029;BME280;6581;42.662;23.402;2023-02-02T08:34:10;95429.09;;;4.76;72.47
13029;BME280;6581;42.662;23.402;2023-02-02T08:36:39;95438.66;;;4.72;72.56
13029;BME280;6581;42.662;23.402;2023-02-02T08:39:09;95447.91;;;4.78;72.16
13029;BME280;6581;42.662;23.402;2023-02-02T08:41:38;95429.28;;;4.71;71.72
13029;BME280;6581;42.662;23.402;2023-02-02T08:44:30;95433.00;;;4.62;71.75
13029;BME280;6581;42.662;23.402;2023-02-02T08:46:57;95430.53;;;4.65;71.74
13029;BME280;6581;42.662;23.402;2023-02-02T08:49:24;95413.34;;;4.76;72.13
13029;BME280;6581;42.662;23.402;2023-02-02T08:51:51;95423.03;;;4.84;72.22
13029;BME280;6581;42.662;23.402;2023-02-02T08:54:18;95420.16;;;4.98;71.81
13029;BME280;6581;42.662;23.402;2023-02-02T08:56:47;95426.31;;;5.02;71.72
13029;BME280;6581;42.662;23.402;2023-02-02T08:59:15;95432.09;;;5.16;72.16
13029;BME280;6581;42.662;23.402;2023-02-02T09:01:42;95428.47;;;5.29;71.37
13029;BME280;6581;42.662;23.402;2023-02-02T09:04:12;95429.53;;;5.28;71.93
13029;BME280;6581;42.662;23.402;2023-02-02T09:06:41;95421.28;;;5.18;69.70
13029;BME280;6581;42.662;23.402;2023-02-02T09:09:09;95425.25;;;5.24;70.49
13029;BME280;6581;42.662;23.402;2023-02-02T09:12:04;95419.81;;;5.29;69.90
13029;BME280;6581;42.662;23.402;2023-02-02T09:14:31;95421.59;;;5.37;70.56
13029;BME280;6581;42.662;23.402;2023-02-02T09:16:58;95420.53;;;5.59;69.22
13029;BME280;6581;42.662;23.402;2023-02-02T09:19:49;95409.06;;;5.63;68.32
13029;BME280;6581;42.662;23.402;2023-02-02T09:22:16;95421.31;;;5.92;68.31
13029;BME280;6581;42.662;23.402;2023-02-02T09:24:43;95402.53;;;6.02;67.71
13029;BME280;6581;42.662;23.402;2023-02-02T09:27:11;95410.38;;;6.23;65.89
13029;BME280;6581;42.662;23.402;2023-02-02T09:29:38;95402.38;;;6.32;66.07
13029;BME280;6581;42.662;23.402;2023-02-02T09:32:05;95399.63;;;6.40;65.56
13029;BME280;6581;42.662;23.402;2023-02-02T09:34:32;95398.88;;;6.40;64.73
13029;BME280;6581;42.662;23.402;2023-02-02T09:36:59;95387.34;;;6.56;64.83
13029;BME280;6581;42.662;23.402;2023-02-02T09:39:26;95385.06;;;6.67;65.80
13029;BME280;6581;42.662;23.402;2023-02-02T09:42:16;95389.69;;;6.82;64.69
13029;BME280;6581;42.662;23.402;2023-02-02T09:45:05;95377.94;;;6.92;64.12
13029;BME280;6581;42.662;23.402;2023-02-02T09:47:47;95379.06;;;7.31;62.58
13029;BME280;6581;42.662;23.402;2023-02-02T09:50:17;95385.06;;;7.71;60.47
13029;BME280;6581;42.662;23.402;2023-02-02T09:52:49;95376.44;;;8.02;57.64
13029;BME280;6581;42.662;23.402;2023-02-02T09:55:26;95369.59;;;8.29;58.11
13029;BME280;6581;42.662;23.402;2023-02-02T09:57:59;95375.31;;;8.31;58.43
13029;BME280;6581;42.662;23.402;2023-02-02T10:00:32;95362.59;;;8.21;59.74
13029;BME280;6581;42.662;23.402;2023-02-02T10:03:03;95363.25;;;8.02;57.48
13029;BME280;6581;42.662;23.402;2023-02-02T10:05:41;95355.94;;;8.11;58.24
13029;BME280;6581;42.662;23.402;2023-02-02T10:08:16;95355.22;;;8.26;57.25
13029;BME280;6581;42.662;23.402;2023-02-02T10:10:47;95357.06;;;8.26;57.39
13029;BME280;6581;42.662;23.402;2023-02-02T10:13:20;95350.03;;;8.30;56.63
13029;BME280;6581;42.662;23.402;2023-02-02T10:15:55;95344.41;;;8.16;51.92
13029;BME280;6581;42.662;23.402;2023-02-02T10:18:33;95336.50;;;8.16;55.76
13029;BME280;6581;42.662;23.402;2023-02-02T10:21:02;95343.03;;;8.22;55.74
13029;BME280;6581;42.662;23.402;2023-02-02T10:23:33;95334.78;;;8.39;55.37
13029;BME280;6581;42.662;23.402;2023-02-02T10:26:12;95331.84;;;8.91;53.86
13029;BME280;6581;42.662;23.402;2023-02-02T10:28:56;95326.94;;;9.28;51.28
13029;BME280;6581;42.662;23.402;2023-02-02T10:31:59;95330.81;;;9.53;50.61
13029;BME280;6581;42.662;23.402;2023-02-02T10:34:32;95325.63;;;9.57;49.41
13029;BME280;6581;42.662;23.402;2023-02-02T10:37:21;95322.50;;;9.51;49.13
13029;BME280;6581;42.662;23.402;2023-02-02T10:40:16;95318.53;;;9.61;45.79
13029;BME280;6581;42.662;23.402;2023-02-02T10:42:57;95305.66;;;9.82;45.11
13029;BME280;6581;42.662;23.402;2023-02-02T10:45:49;95308.72;;;9.42;43.20
13029;BME280;6581;42.662;23.402;2023-02-02T10:48:19;95298.84;;;9.39;44.53
13029;BME280;6581;42.662;23.402;2023-02-02T10:50:49;95278.91;;;9.64;44.78
13029;BME280;6581;42.662;23.402;2023-02-02T10:53:18;95282.41;;;9.49;43.17
13029;BME280;6581;42.662;23.402;2023-02-02T10:55:49;95272.41;;;9.20;43.73
13029;BME280;6581;42.662;23.402;2023-02-02T10:58:24;95270.03;;;8.96;43.90
13029;BME280;6581;42.662;23.402;2023-02-02T11:00:56;95258.91;;;9.06;43.93
13029;BME280;6581;42.662;23.402;2023-02-02T11:03:27;95265.66;;;9.03;43.14
13029;BME280;6581;42.662;23.402;2023-02-02T11:05:56;95263.56;;;8.93;42.06
13029;BME280;6581;42.662;23.402;2023-02-02T11:08:43;95259.97;;;9.01;42.56
13029;BME280;6581;42.662;23.402;2023-02-02T11:11:17;95257.09;;;9.29;41.92
13029;BME280;6581;42.662;23.402;2023-02-02T11:13:48;95258.28;;;8.93;42.24
13029;BME280;6581;42.662;23.402;2023-02-02T11:16:22;95251.13;;;9.13;41.70
13029;BME280;6581;42.662;23.402;2023-02-02T11:18:52;95229.91;;;9.28;41.45
13029;BME280;6581;42.662;23.402;2023-02-02T11:21:46;95247.34;;;9.33;40.88
13029;BME280;6581;42.662;23.402;2023-02-02T11:24:20;95226.91;;;9.30;41.08
13029;BME280;6581;42.662;23.402;2023-02-02T11:27:13;95248.25;;;9.21;41.17
13029;BME280;6581;42.662;23.402;2023-02-02T11:30:16;95231.03;;;9.50;41.32
13029;BME280;6581;42.662;23.402;2023-02-02T11:32:48;95227.59;;;9.46;40.84
13029;BME280;6581;42.662;23.402;2023-02-02T11:35:18;95203.88;;;9.30;41.59
13029;BME280;6581;42.662;23.402;2023-02-02T11:38:07;95205.78;;;9.30;41.55
13029;BME280;6581;42.662;23.402;2023-02-02T11:40:36;95200.28;;;9.19;40.89
13029;BME280;6581;42.662;23.402;2023-02-02T11:43:06;95201.53;;;9.25;41.26
13029;BME280;6581;42.662;23.402;2023-02-02T11:45:41;95208.34;;;9.26;41.21
13029;BME280;6581;42.662;23.402;2023-02-02T11:48:16;95197.69;;;9.23;40.56
13029;BME280;6581;42.662;23.402;2023-02-02T11:50:45;95197.19;;;9.37;40.91
13029;BME280;6581;42.662;23.402;2023-02-02T11:53:22;95203.00;;;9.46;40.43
13029;BME280;6581;42.662;23.402;2023-02-02T11:55:51;95189.50;;;9.51;40.62
13029;BME280;6581;42.662;23.402;2023-02-02T11:58:20;95177.81;;;9.74;39.25
13029;BME280;6581;42.662;23.402;2023-02-02T12:00:55;95180.84;;;9.76;38.47
13029;BME280;6581;42.662;23.402;2023-02-02T12:03:28;95177.09;;;9.77;40.10
13029;BME280;6581;42.662;23.402;2023-02-02T12:05:55;95153.41;;;9.85;39.26
13029;BME280;6581;42.662;23.402;2023-02-02T12:08:22;95149.44;;;9.98;39.48
13029;BME280;6581;42.662;23.402;2023-02-02T12:10:55;95160.00;;;9.94;38.72
13029;BME280;6581;42.662;23.402;2023-02-02T12:13:34;95158.28;;;10.09;39.38
13029;BME280;6581;42.662;23.402;2023-02-02T12:16:21;95178.00;;;10.11;39.59
13029;BME280;6581;42.662;23.402;2023-02-02T12:19:12;95160.53;;;10.07;39.54
13029;BME280;6581;42.662;23.402;2023-02-02T12:21:49;95151.03;;;10.02;38.88
13029;BME280;6581;42.662;23.402;2023-02-02T12:24:27;95157.25;;;9.91;39.68
13029;BME280;6581;42.662;23.402;2023-02-02T12:27:04;95166.59;;;9.58;40.41
13029;BME280;6581;42.662;23.402;2023-02-02T12:29:45;95175.53;;;9.50;40.55
13029;BME280;6581;42.662;23.402;2023-02-02T12:32:41;95164.69;;;9.36;41.27
13029;BME280;6581;42.662;23.402;2023-02-02T12:35:25;95166.94;;;9.57;41.02
13029;BME280;6581;42.662;23.402;2023-02-02T12:38:01;95159.78;;;9.57;39.72
13029;BME280;6581;42.662;23.402;2023-02-02T12:40:45;95163.34;;;9.46;40.90
13029;BME280;6581;42.662;23.402;2023-02-02T12:43:29;95161.44;;;9.43;40.78
13029;BME280;6581;42.662;23.402;2023-02-02T12:49:34;95159.16;;;9.22;39.92
13029;BME280;6581;42.662;23.402;2023-02-02T12:52:20;95174.19;;;9.18;40.68
13029;BME280;6581;42.662;23.402;2023-02-02T12:55:06;95164.69;;;9.13;40.01
13029;BME280;6581;42.662;23.402;2023-02-02T12:57:47;95176.44;;;9.16;39.97
13029;BME280;6581;42.662;23.402;2023-02-02T13:00:34;95171.16;;;9.16;40.12
13029;BME280;6581;42.662;23.402;2023-02-02T13:03:29;95169.84;;;9.06;40.17
13029;BME280;6581;42.662;23.402;2023-02-02T13:06:26;95163.25;;;8.97;40.37
13029;BME280;6581;42.662;23.402;2023-02-02T13:09:01;95157.25;;;9.00;40.94
13029;BME280;6581;42.662;23.402;2023-02-02T13:11:36;95164.63;;;9.10;40.74
13029;BME280;6581;42.662;23.402;2023-02-02T13:14:08;95160.38;;;9.05;40.29
13029;BME280;6581;42.662;23.402;2023-02-02T13:16:40;95162.19;;;9.01;40.48
13029;BME280;6581;42.662;23.402;2023-02-02T13:19:12;95164.34;;;9.15;40.91
13029;BME280;6581;42.662;23.402;2023-02-02T13:21:42;95153.34;;;9.13;39.96
13029;BME280;6581;42.662;23.402;2023-02-02T13:24:16;95169.34;;;9.20;40.50
13029;BME280;6581;42.662;23.402;2023-02-02T13:26:47;95165.16;;;9.19;39.94
13029;BME280;6581;42.662;23.402;2023-02-02T13:29:21;95160.06;;;9.29;40.09
13029;BME280;6581;42.662;23.402;2023-02-02T13:31:55;95154.78;;;8.87;40.12
13029;BME280;6581;42.662;23.402;2023-02-02T13:34:33;95159.34;;;8.90;40.54
13029;BME280;6581;42.662;23.402;2023-02-02T13:37:07;95162.53;;;9.00;40.74
13029;BME280;6581;42.662;23.402;2023-02-02T13:39:43;95155.03;;;9.02;40.71
13029;BME280;6581;42.662;23.402;2023-02-02T13:42:20;95156.84;;;8.98;40.86
13029;BME280;6581;42.662;23.402;2023-02-02T13:44:54;95160.31;;;9.02;41.00